createdAt,value
2018-04-12T00:00:09.675Z,99.90
2018-04-12T00:02:39.029Z,99.90
2018-04-12T00:05:07.254Z,99.90
2018-04-12T00:07:36.288Z,99.90
2018-04-12T00:10:05.805Z,99.90
2018-04-12T00:12:34.779Z,99.90
2018-04-12T00:15:03.373Z,99.90
2018-04-12T00:17:32.680Z,99.90
2018-04-12T00:20:00.904Z,99.90
2018-04-12T00:22:29.114Z,99.90
2018-04-12T00:24:58.108Z,99.90
2018-04-12T00:27:27.092Z,99.90
2018-04-12T00:30:02.154Z,99.90
2018-04-12T00:32:30.361Z,99.90
2018-04-12T00:34:59.212Z,99.90
2018-04-12T00:37:28.201Z,99.90
2018-04-12T00:39:57.276Z,99.90
2018-04-12T00:42:25.581Z,99.90
2018-04-12T00:44:53.782Z,99.90
2018-04-12T00:47:22.215Z,99.90
2018-04-12T00:49:50.916Z,99.90
2018-04-12T00:52:19.896Z,99.90
2018-04-12T00:54:48.109Z,99.90
2018-04-12T00:57:21.847Z,99.90
2018-04-12T00:59:50.361Z,99.90
2018-04-12T01:02:18.578Z,99.90
2018-04-12T01:04:46.792Z,99.90
2018-04-12T01:07:17.689Z,99.90
2018-04-12T01:09:45.898Z,99.90
2018-04-12T01:12:14.141Z,99.90
2018-04-12T01:14:42.343Z,99.90
2018-04-12T01:17:23.901Z,99.90
2018-04-12T01:19:53.179Z,99.90
2018-04-12T01:22:21.386Z,99.90
2018-04-12T01:24:49.598Z,99.90
2018-04-12T01:27:18.421Z,99.90
2018-04-12T01:29:47.024Z,99.90
2018-04-12T01:32:15.516Z,99.90
2018-04-12T01:34:43.867Z,99.90
2018-04-12T01:37:12.461Z,99.90
2018-04-12T01:39:41.256Z,99.90
2018-04-12T01:42:10.533Z,99.90
2018-04-12T01:44:38.735Z,99.90
2018-04-12T01:47:08.278Z,99.70
2018-04-12T01:49:36.473Z,99.70
2018-04-12T01:52:04.967Z,99.50
2018-04-12T01:54:33.568Z,99.90
2018-04-12T01:57:02.791Z,99.90
2018-04-12T01:59:31.004Z,99.80
2018-04-12T02:01:59.208Z,99.70
2018-04-12T02:04:27.448Z,99.70
2018-04-12T02:06:55.654Z,99.50
2018-04-12T02:09:24.257Z,99.40
2018-04-12T02:11:53.090Z,99.60
2018-04-12T02:14:21.300Z,99.70
2018-04-12T02:16:49.501Z,99.80
2018-04-12T02:19:18.205Z,99.40
2018-04-12T02:21:47.177Z,99.60
2018-04-12T02:24:15.394Z,99.60
2018-04-12T02:26:43.767Z,99.60
2018-04-12T02:29:11.905Z,99.50
2018-04-12T02:31:40.416Z,99.40
2018-04-12T02:34:09.913Z,99.50
2018-04-12T02:36:39.030Z,99.50
2018-04-12T02:39:07.242Z,99.40
2018-04-12T02:41:35.688Z,99.50
2018-04-12T02:44:03.892Z,99.60
2018-04-12T02:46:32.299Z,99.70
2018-04-12T02:49:00.486Z,99.90
2018-04-12T02:51:29.397Z,99.70
2018-04-12T02:53:58.913Z,99.90
2018-04-12T02:56:28.138Z,99.90
2018-04-12T02:58:56.411Z,99.90
2018-04-12T03:01:24.613Z,99.90
2018-04-12T03:03:52.825Z,99.90
2018-04-12T03:06:21.838Z,99.90
2018-04-12T03:08:51.260Z,99.90
2018-04-12T03:11:19.467Z,99.90
2018-04-12T03:13:48.753Z,99.80
2018-04-12T03:16:16.977Z,99.80
2018-04-12T03:18:49.652Z,99.50
2018-04-12T03:21:18.637Z,99.80
2018-04-12T03:23:46.856Z,99.70
2018-04-12T03:26:15.578Z,99.70
2018-04-12T03:28:43.752Z,99.80
2018-04-12T03:31:11.965Z,99.70
2018-04-12T03:33:40.573Z,99.90
2018-04-12T03:36:09.719Z,99.90
2018-04-12T03:38:38.320Z,99.60
2018-04-12T03:41:06.811Z,99.40
2018-04-12T03:43:35.284Z,99.50
2018-04-12T03:46:03.483Z,99.50
2018-04-12T03:48:31.690Z,99.60
2018-04-12T03:51:05.937Z,99.30
2018-04-12T03:53:34.128Z,98.90
2018-04-12T03:56:02.417Z,98.50
2018-04-12T03:58:31.393Z,98.00
2018-04-12T04:00:59.616Z,98.00
2018-04-12T04:03:28.081Z,97.80
2018-04-12T04:05:56.284Z,97.60
2018-04-12T04:08:25.135Z,97.50
2018-04-12T04:10:53.344Z,97.20
2018-04-12T04:13:21.540Z,97.10
2018-04-12T04:16:02.036Z,97.00
2018-04-12T04:18:48.497Z,96.90
2018-04-12T04:21:17.561Z,96.80
2018-04-12T04:23:46.545Z,96.60
2018-04-12T04:26:15.558Z,96.50
2018-04-12T04:28:44.707Z,96.50
2018-04-12T04:31:13.497Z,96.40
2018-04-12T04:33:42.222Z,96.30
2018-04-12T04:36:10.451Z,96.20
2018-04-12T04:38:39.073Z,96.20
2018-04-12T04:41:07.760Z,96.10
2018-04-12T04:43:35.959Z,96.20
2018-04-12T04:46:04.157Z,96.10
2018-04-12T04:48:32.390Z,96.00
2018-04-12T04:51:00.960Z,96.10
2018-04-12T04:53:29.166Z,96.00
2018-04-12T04:55:58.262Z,95.90
2018-04-12T04:58:27.025Z,95.90
2018-04-12T05:00:55.235Z,95.80
2018-04-12T05:03:23.465Z,95.70
2018-04-12T05:05:52.166Z,95.70
2018-04-12T05:08:21.073Z,95.60
2018-04-12T05:10:50.052Z,95.60
2018-04-12T05:13:18.256Z,95.60
2018-04-12T05:15:47.090Z,95.50
2018-04-12T05:18:15.677Z,95.40
2018-04-12T05:20:45.026Z,95.20
2018-04-12T05:23:13.231Z,95.20
2018-04-12T05:25:41.434Z,95.10
2018-04-12T05:28:09.935Z,95.30
2018-04-12T05:30:38.141Z,95.20
2018-04-12T05:33:06.358Z,95.30
2018-04-12T05:35:35.402Z,95.50
2018-04-12T05:38:04.683Z,95.80
2018-04-12T05:40:36.688Z,95.80
2018-04-12T05:43:04.888Z,95.90
2018-04-12T05:45:33.097Z,96.00
2018-04-12T05:48:01.812Z,96.10
2018-04-12T05:50:30.472Z,96.10
2018-04-12T05:52:59.376Z,96.10
2018-04-12T05:55:27.936Z,96.40
2018-04-12T05:57:56.145Z,96.30
2018-04-12T06:00:25.137Z,96.40
2018-04-12T06:02:53.721Z,96.40
2018-04-12T06:05:22.692Z,96.40
2018-04-12T06:07:51.417Z,96.40
2018-04-12T06:10:19.610Z,96.40
2018-04-12T06:12:47.824Z,96.60
2018-04-12T06:15:16.040Z,96.50
2018-04-12T06:17:44.903Z,96.60
2018-04-12T06:20:13.894Z,96.70
2018-04-12T06:22:42.107Z,96.70
2018-04-12T06:25:10.300Z,96.60
2018-04-12T06:27:39.420Z,96.70
2018-04-12T06:30:07.645Z,96.80
2018-04-12T06:32:36.450Z,96.80
2018-04-12T06:35:04.729Z,96.70
2018-04-12T06:37:33.604Z,96.80
2018-04-12T06:40:01.922Z,96.70
2018-04-12T06:42:30.563Z,96.90
2018-04-12T06:44:59.192Z,96.60
2018-04-12T06:47:27.545Z,96.80
2018-04-12T06:49:55.934Z,96.70
2018-04-12T06:52:24.155Z,96.70
2018-04-12T06:54:52.346Z,96.40
2018-04-12T06:57:20.873Z,96.20
2018-04-12T06:59:49.080Z,96.40
2018-04-12T07:02:17.289Z,96.10
2018-04-12T07:04:46.356Z,95.90
2018-04-12T07:07:18.657Z,95.70
2018-04-12T07:09:47.641Z,95.20
2018-04-12T07:12:16.634Z,95.20
2018-04-12T07:14:45.616Z,94.30
2018-04-12T07:17:13.825Z,94.30
2018-04-12T07:19:42.724Z,94.00
2018-04-12T07:22:12.790Z,93.30
2018-04-12T07:24:41.001Z,92.00
2018-04-12T07:27:10.496Z,90.60
2018-04-12T07:29:39.601Z,90.50
2018-04-12T07:32:09.033Z,89.40
2018-04-12T07:34:39.317Z,89.20
2018-04-12T07:37:08.604Z,87.80
2018-04-12T07:39:37.349Z,87.70
2018-04-12T07:42:05.984Z,86.40
2018-04-12T07:44:34.184Z,85.70
2018-04-12T07:47:02.436Z,85.70
2018-04-12T07:49:30.645Z,85.30
2018-04-12T07:51:59.829Z,83.90
2018-04-12T07:54:28.805Z,84.70
2018-04-12T07:56:57.602Z,84.60
2018-04-12T07:59:25.851Z,81.50
2018-04-12T08:01:54.040Z,77.80
2018-04-12T08:04:22.451Z,78.10
2018-04-12T08:06:51.432Z,74.70
2018-04-12T08:09:20.235Z,74.80
2018-04-12T08:11:48.429Z,76.30
2018-04-12T08:14:17.491Z,74.80
2018-04-12T08:16:46.701Z,71.30
2018-04-12T08:19:15.473Z,71.30
2018-04-12T08:21:43.970Z,72.30
2018-04-12T08:24:12.169Z,70.20
2018-04-12T08:26:41.715Z,71.30
2018-04-12T08:29:09.888Z,69.70
2018-04-12T08:31:38.094Z,68.50
2018-04-12T08:34:07.267Z,65.50
2018-04-12T08:36:37.524Z,66.40
2018-04-12T08:39:07.837Z,59.00
2018-04-12T08:41:37.353Z,59.00
2018-04-12T08:44:06.360Z,57.70
2018-04-12T08:46:35.330Z,59.00
2018-04-12T08:49:04.328Z,56.90
2018-04-12T08:51:32.909Z,56.30
2018-04-12T08:54:01.944Z,53.00
2018-04-12T08:56:30.827Z,53.50
2018-04-12T08:58:59.036Z,55.50
2018-04-12T09:01:27.278Z,53.70
2018-04-12T09:03:55.505Z,53.30
2018-04-12T09:06:24.020Z,52.40
2018-04-12T09:08:53.742Z,51.10
2018-04-12T09:11:22.623Z,51.00
2018-04-12T09:13:51.785Z,50.50
2018-04-12T09:16:19.982Z,50.50
2018-04-12T09:18:51.876Z,50.10
2018-04-12T09:21:20.083Z,49.90
2018-04-12T09:23:48.397Z,49.00
2018-04-12T09:26:17.675Z,47.60
2018-04-12T09:28:45.902Z,46.10
2018-04-12T09:31:15.194Z,46.00
2018-04-12T09:33:50.328Z,45.40
2018-04-12T09:36:18.858Z,45.60
2018-04-12T09:38:47.789Z,45.40
2018-04-12T09:41:16.872Z,44.30
2018-04-12T09:43:45.513Z,44.50
2018-04-12T09:46:14.199Z,44.60
2018-04-12T09:48:42.414Z,43.30
2018-04-12T09:51:11.012Z,42.80
2018-04-12T09:53:39.216Z,43.50
2018-04-12T09:56:07.764Z,43.70
2018-04-12T09:58:35.981Z,42.40
2018-04-12T10:01:10.169Z,44.10
2018-04-12T10:03:44.093Z,42.80
2018-04-12T10:06:27.193Z,42.70
2018-04-12T10:09:01.622Z,41.70
2018-04-12T10:11:30.555Z,40.80
2018-04-12T10:13:58.773Z,40.80
2018-04-12T10:16:27.151Z,41.30
2018-04-12T10:18:55.763Z,41.80
2018-04-12T10:21:24.559Z,42.40
2018-04-12T10:23:53.529Z,42.80
2018-04-12T10:26:22.138Z,42.70
2018-04-12T10:28:51.329Z,42.60
2018-04-12T10:31:19.538Z,42.50
2018-04-12T10:33:53.937Z,43.20
2018-04-12T10:36:22.517Z,43.60
2018-04-12T10:38:51.865Z,42.70
2018-04-12T10:41:20.484Z,42.60
2018-04-12T10:43:48.892Z,43.30
2018-04-12T10:46:17.094Z,43.20
2018-04-12T10:48:45.437Z,42.80
2018-04-12T10:51:14.809Z,43.50
2018-04-12T10:53:43.019Z,43.40
2018-04-12T10:56:12.300Z,43.20
2018-04-12T10:58:40.505Z,43.20
2018-04-12T11:01:08.968Z,43.40
2018-04-12T11:03:37.551Z,42.70
2018-04-12T11:06:05.864Z,42.70
2018-04-12T11:08:34.620Z,43.10
2018-04-12T11:11:03.090Z,41.60
2018-04-12T11:13:31.777Z,43.00
2018-04-12T11:16:00.092Z,43.80
2018-04-12T11:18:28.730Z,42.60
2018-04-12T11:20:57.457Z,42.40
2018-04-12T11:23:26.961Z,41.00
2018-04-12T11:25:55.161Z,41.00
2018-04-12T11:28:24.777Z,41.80
2018-04-12T11:30:52.985Z,41.00
2018-04-12T11:33:21.485Z,41.20
2018-04-12T11:35:50.602Z,41.90
2018-04-12T11:38:19.933Z,40.10
2018-04-12T11:40:54.411Z,40.10
2018-04-12T11:43:23.373Z,40.60
2018-04-12T11:45:52.541Z,42.10
2018-04-12T11:48:20.749Z,42.00
2018-04-12T11:50:49.321Z,40.10
2018-04-12T11:53:17.565Z,41.30
2018-04-12T11:55:46.254Z,40.70
2018-04-12T11:58:15.212Z,40.60
2018-04-12T12:00:44.227Z,40.80
2018-04-12T12:03:13.724Z,40.80
2018-04-12T12:05:43.190Z,41.00
2018-04-12T12:08:11.892Z,40.90
2018-04-12T12:10:40.105Z,40.10
2018-04-12T12:13:09.069Z,40.60
2018-04-12T12:15:37.282Z,40.50
2018-04-12T12:18:05.614Z,39.70
2018-04-12T12:20:34.213Z,40.10
2018-04-12T12:23:02.914Z,39.50
2018-04-12T12:25:31.890Z,38.30
2018-04-12T12:28:01.081Z,39.20
2018-04-12T12:30:30.699Z,39.20
2018-04-12T12:32:58.944Z,38.70
2018-04-12T12:35:27.548Z,39.40
2018-04-12T12:37:56.237Z,39.40
2018-04-12T12:40:24.721Z,39.60
2018-04-12T12:42:53.004Z,39.70
2018-04-12T12:45:21.221Z,39.70
2018-04-12T12:47:49.425Z,39.00
2018-04-12T12:50:17.860Z,38.80
2018-04-12T12:52:47.020Z,38.70
2018-04-12T12:55:15.952Z,38.60
2018-04-12T12:57:44.164Z,38.70
2018-04-12T13:00:12.370Z,39.20
2018-04-12T13:02:40.885Z,39.30
2018-04-12T13:05:09.872Z,38.00
2018-04-12T13:07:38.779Z,38.00
2018-04-12T13:10:07.006Z,38.40
2018-04-12T13:12:35.180Z,38.70
2018-04-12T13:15:03.502Z,38.00
2018-04-12T13:17:35.050Z,39.30
2018-04-12T13:20:04.543Z,38.70
2018-04-12T13:22:33.580Z,38.70
2018-04-12T13:25:01.817Z,37.40
2018-04-12T13:27:30.588Z,37.20
2018-04-12T13:29:58.796Z,37.40
2018-04-12T13:32:27.771Z,37.00
2018-04-12T13:34:56.276Z,36.90
2018-04-12T13:37:26.398Z,37.60
2018-04-12T13:39:54.946Z,37.30
2018-04-12T13:42:24.923Z,38.00
2018-04-12T13:44:53.122Z,37.80
2018-04-12T13:47:21.508Z,37.50
2018-04-12T13:49:53.824Z,38.30
2018-04-12T13:52:23.321Z,38.40
2018-04-12T13:54:52.315Z,38.60
2018-04-12T13:57:22.545Z,37.50
2018-04-12T13:59:51.636Z,37.60
2018-04-12T14:02:21.180Z,37.70
2018-04-12T14:04:49.732Z,37.70
2018-04-12T14:07:24.049Z,38.00
2018-04-12T14:09:52.258Z,36.10
2018-04-12T14:12:20.664Z,37.60
2018-04-12T14:14:48.944Z,37.20
2018-04-12T14:17:17.767Z,37.80
2018-04-12T14:19:46.649Z,37.40
2018-04-12T14:22:15.621Z,36.90
2018-04-12T14:24:45.519Z,36.90
2018-04-12T14:27:13.797Z,36.40
2018-04-12T14:29:42.007Z,37.00
2018-04-12T14:32:10.212Z,35.80
2018-04-12T14:34:38.968Z,37.40
2018-04-12T14:37:07.529Z,37.60
2018-04-12T14:39:36.134Z,37.10
2018-04-12T14:42:04.803Z,37.80
2018-04-12T14:44:33.023Z,38.40
2018-04-12T14:47:01.215Z,37.70
2018-04-12T14:49:29.669Z,37.80
2018-04-12T14:51:59.991Z,38.40
2018-04-12T14:54:28.314Z,38.40
2018-04-12T14:56:57.164Z,39.20
2018-04-12T14:59:26.147Z,39.20
2018-04-12T15:01:54.345Z,39.20
2018-04-12T15:04:23.505Z,40.00
2018-04-12T15:06:52.897Z,39.90
2018-04-12T15:09:22.484Z,40.90
2018-04-12T15:11:51.236Z,40.50
2018-04-12T15:14:20.941Z,41.70
2018-04-12T15:16:49.192Z,41.70
2018-04-12T15:19:17.597Z,42.00
2018-04-12T15:21:46.572Z,42.00
2018-04-12T15:24:15.572Z,42.00
2018-04-12T15:26:44.084Z,42.80
2018-04-12T15:29:12.636Z,43.10
2018-04-12T15:31:41.153Z,43.00
2018-04-12T15:34:09.933Z,43.60
2018-04-12T15:36:39.837Z,43.80
2018-04-12T15:39:08.822Z,43.70
2018-04-12T15:41:38.029Z,43.70
2018-04-12T15:44:06.598Z,44.40
2018-04-12T15:46:34.861Z,44.50
2018-04-12T15:49:03.012Z,44.70
2018-04-12T15:51:32.406Z,44.80
2018-04-12T15:54:01.787Z,44.60
2018-04-12T15:56:31.697Z,45.30
2018-04-12T15:59:01.429Z,45.30
2018-04-12T16:01:29.642Z,45.20
2018-04-12T16:03:57.841Z,45.00
2018-04-12T16:06:26.445Z,45.20
2018-04-12T16:08:55.736Z,45.30
2018-04-12T16:11:24.701Z,45.80
2018-04-12T16:13:52.902Z,45.80
2018-04-12T16:16:21.894Z,46.40
2018-04-12T16:18:52.949Z,46.00
2018-04-12T16:21:22.449Z,46.10
2018-04-12T16:23:51.427Z,46.60
2018-04-12T16:26:20.004Z,46.60
2018-04-12T16:28:48.796Z,46.60
2018-04-12T16:31:17.001Z,46.90
2018-04-12T16:33:45.457Z,47.00
2018-04-12T16:36:14.148Z,47.40
2018-04-12T16:38:42.726Z,47.70
2018-04-12T16:41:11.830Z,48.10
2018-04-12T16:43:40.425Z,48.10
2018-04-12T16:46:09.401Z,48.40
2018-04-12T16:48:38.896Z,48.40
2018-04-12T16:51:07.717Z,48.40
2018-04-12T16:53:36.349Z,48.60
2018-04-12T16:56:05.300Z,48.90
2018-04-12T16:58:34.459Z,48.80
2018-04-12T17:01:03.041Z,48.70
2018-04-12T17:03:31.664Z,49.00
2018-04-12T17:06:00.635Z,49.80
2018-04-12T17:08:29.516Z,49.80
2018-04-12T17:10:57.723Z,50.20
2018-04-12T17:13:25.933Z,49.80
2018-04-12T17:15:54.185Z,50.50
2018-04-12T17:18:23.600Z,50.90
2018-04-12T17:20:52.265Z,50.90
2018-04-12T17:23:21.385Z,51.90
2018-04-12T17:25:50.720Z,52.60
2018-04-12T17:28:19.138Z,52.40
2018-04-12T17:30:48.623Z,53.50
2018-04-12T17:33:16.871Z,53.10
2018-04-12T17:35:45.838Z,53.50
2018-04-12T17:38:14.909Z,53.90
2018-04-12T17:40:44.204Z,54.50
2018-04-12T17:43:12.411Z,54.20
2018-04-12T17:45:40.924Z,54.10
2018-04-12T17:48:09.149Z,54.60
2018-04-12T17:50:37.933Z,54.80
2018-04-12T17:53:06.899Z,55.10
2018-04-12T17:55:36.358Z,54.50
2018-04-12T17:58:05.200Z,55.20
2018-04-12T18:00:33.475Z,54.80
2018-04-12T18:03:01.682Z,54.80
2018-04-12T18:05:29.982Z,54.70
2018-04-12T18:07:58.745Z,55.20
2018-04-12T18:10:28.075Z,55.00
2018-04-12T18:12:56.930Z,55.10
2018-04-12T18:15:26.174Z,55.10
2018-04-12T18:17:54.636Z,54.90
2018-04-12T18:20:23.444Z,55.20
2018-04-12T18:22:51.649Z,55.50
2018-04-12T18:25:20.189Z,55.80
2018-04-12T18:27:48.392Z,55.50
2018-04-12T18:30:16.613Z,56.00
2018-04-12T18:32:45.115Z,56.30
2018-04-12T18:35:14.828Z,56.00
2018-04-12T18:37:43.489Z,56.00
2018-04-12T18:40:12.057Z,56.10
2018-04-12T18:42:40.810Z,56.30
2018-04-12T18:45:10.266Z,56.40
2018-04-12T18:47:38.612Z,56.40
2018-04-12T18:50:07.667Z,56.60
2018-04-12T18:52:35.873Z,56.60
2018-04-12T18:55:11.548Z,56.30
2018-04-12T18:57:39.868Z,56.70
2018-04-12T19:00:08.841Z,57.00
2018-04-12T19:02:37.245Z,57.00
2018-04-12T19:05:05.452Z,57.40
2018-04-12T19:07:34.179Z,56.90
2018-04-12T19:10:02.439Z,57.20
2018-04-12T19:12:30.616Z,57.40
2018-04-12T19:14:59.208Z,57.60
2018-04-12T19:17:27.405Z,58.00
2018-04-12T19:19:56.001Z,58.40
2018-04-12T19:22:25.177Z,58.60
2018-04-12T19:24:54.150Z,58.50
2018-04-12T19:27:22.455Z,58.70
2018-04-12T19:29:51.373Z,58.60
2018-04-12T19:32:19.582Z,59.20
2018-04-12T19:34:48.326Z,59.40
2018-04-12T19:37:18.353Z,59.90
2018-04-12T19:39:47.122Z,59.80
2018-04-12T19:42:16.208Z,60.10
2018-04-12T19:44:44.405Z,60.10
2018-04-12T19:47:12.621Z,60.80
2018-04-12T19:49:40.868Z,61.90
2018-04-12T19:52:10.178Z,62.40
2018-04-12T19:54:38.383Z,62.40
2018-04-12T19:57:07.128Z,62.10
2018-04-12T19:59:35.340Z,62.40
2018-04-12T20:02:03.742Z,62.10
2018-04-12T20:04:32.472Z,61.90
2018-04-12T20:07:08.637Z,62.00
2018-04-12T20:09:37.540Z,62.00
2018-04-12T20:12:06.190Z,62.80
2018-04-12T20:14:34.646Z,63.30
2018-04-12T20:17:03.563Z,63.00
2018-04-12T20:19:32.446Z,63.60
2018-04-12T20:22:02.021Z,64.10
2018-04-12T20:24:30.225Z,64.10
2018-04-12T20:26:59.048Z,64.30
2018-04-12T20:29:28.097Z,65.00
2018-04-12T20:31:56.366Z,65.00
2018-04-12T20:34:25.489Z,65.50
2018-04-12T20:36:54.618Z,65.50
2018-04-12T20:39:23.569Z,65.80
2018-04-12T20:41:51.979Z,66.20
2018-04-12T20:44:21.060Z,68.00
2018-04-12T20:46:49.276Z,68.00
2018-04-12T20:49:18.061Z,68.70
2018-04-12T20:51:46.600Z,69.50
2018-04-12T20:54:14.809Z,71.80
2018-04-12T20:56:43.688Z,71.40
2018-04-12T20:59:12.655Z,71.60
2018-04-12T21:01:47.683Z,71.50
2018-04-12T21:04:16.512Z,71.20
2018-04-12T21:06:45.480Z,71.10
2018-04-12T21:09:14.177Z,71.10
2018-04-12T21:11:42.384Z,71.10
2018-04-12T21:14:11.060Z,71.80
2018-04-12T21:16:40.024Z,72.50
2018-04-12T21:19:16.421Z,72.50
2018-04-12T21:21:44.633Z,72.50
2018-04-12T21:24:12.840Z,72.60
2018-04-12T21:26:41.437Z,72.90
2018-04-12T21:29:09.990Z,73.40
2018-04-12T21:31:38.409Z,74.60
2018-04-12T21:34:07.372Z,76.10
2018-04-12T21:36:39.685Z,75.60
2018-04-12T21:39:09.164Z,76.40
2018-04-12T21:41:37.672Z,76.50
2018-04-12T21:44:06.639Z,77.70
2018-04-12T21:46:34.836Z,77.70
2018-04-12T21:49:03.937Z,80.10
2018-04-12T21:51:33.356Z,80.10
2018-04-12T21:54:01.565Z,80.10
2018-04-12T21:56:30.191Z,81.30
2018-04-12T21:58:59.156Z,83.50
2018-04-12T22:01:27.442Z,83.20
2018-04-12T22:03:55.684Z,85.00
2018-04-12T22:06:24.100Z,87.00
2018-04-12T22:08:53.228Z,88.00
2018-04-12T22:11:22.188Z,89.70
2018-04-12T22:13:51.185Z,91.20
2018-04-12T22:16:19.796Z,91.20
2018-04-12T22:18:54.101Z,91.50
2018-04-12T22:21:22.545Z,91.50
2018-04-12T22:23:51.412Z,92.40
2018-04-12T22:26:20.996Z,92.60
2018-04-12T22:28:50.274Z,93.10
2018-04-12T22:31:18.525Z,93.10
2018-04-12T22:33:47.616Z,94.00
2018-04-12T22:36:16.717Z,94.00
2018-04-12T22:38:45.315Z,95.00
2018-04-12T22:41:13.832Z,95.60
2018-04-12T22:43:42.792Z,96.10
2018-04-12T22:46:11.467Z,96.10
2018-04-12T22:48:39.681Z,95.40
2018-04-12T22:51:08.774Z,95.10
2018-04-12T22:53:36.984Z,95.10
2018-04-12T22:56:05.721Z,95.70
2018-04-12T22:58:33.932Z,96.00
2018-04-12T23:01:02.994Z,96.20
2018-04-12T23:03:31.581Z,96.20
2018-04-12T23:06:00.604Z,96.30
2018-04-12T23:08:30.314Z,96.30
2018-04-12T23:10:59.091Z,96.30
2018-04-12T23:13:29.437Z,96.60
2018-04-12T23:15:57.635Z,96.60
2018-04-12T23:18:26.290Z,96.80
2018-04-12T23:20:55.976Z,96.80
2018-04-12T23:23:25.040Z,96.80
2018-04-12T23:26:00.240Z,96.70
2018-04-12T23:28:29.745Z,96.80
2018-04-12T23:30:58.725Z,96.80
2018-04-12T23:33:27.107Z,96.80
2018-04-12T23:35:56.596Z,97.10
2018-04-12T23:38:25.708Z,97.00
2018-04-12T23:40:55.215Z,97.40
2018-04-12T23:43:24.915Z,97.40
2018-04-12T23:45:53.810Z,97.40
2018-04-12T23:48:22.022Z,97.30
2018-04-12T23:50:51.050Z,98.00
2018-04-12T23:53:19.260Z,98.40
2018-04-12T23:55:47.465Z,98.50
2018-04-12T23:58:16.134Z,98.50
